Time;durP1;ratioP1;P1;durP2;ratioP2;P2;SDS_P1;SDS_P2;PMS_P1;PMS_P2;Temp;Humidity;BMP_temperature;BMP_pressure;BME280_temperature;BME280_humidity;BME280_pressure;Samples;Min_cycle;Max_cycle;Signal;HPM_P1;HPM_P2
2023/03/16 00:02:13;;;;;;;3.20;2.03;;;;;;;;;;5050871;28;20020;-69
2023/03/16 00:04:38;;;;;;;3.45;2.00;;;;;;;;;;5050726;28;20476;-68
2023/03/16 00:07:06;;;;;;;2.30;2.08;;;;;;;;;;5038909;28;20036;-68
2023/03/16 00:09:31;;;;;;;2.00;1.80;;;;;;;;;;5032084;28;20393;-68
2023/03/16 00:11:59;;;;;;;2.22;1.90;;;;;;;;;;5032073;28;20029;-68
2023/03/16 00:14:25;;;;;;;2.13;1.90;;;;;;;;;;5030792;28;20030;-69
2023/03/16 00:16:51;;;;;;;1.80;1.70;;;;;;;;;;5032092;28;20025;-69
2023/03/16 00:19:16;;;;;;;2.78;2.45;;;;;;;;;;5032024;28;20044;-69
2023/03/16 00:21:42;;;;;;;2.10;1.90;;;;;;;;;;5031963;28;20029;-69
2023/03/16 00:24:07;;;;;;;2.95;2.05;;;;;;;;;;5031978;28;20029;-69
2023/03/16 00:26:33;;;;;;;2.15;1.95;;;;;;;;;;5031840;28;20108;-68
2023/03/16 00:28:59;;;;;;;2.10;1.90;;;;;;;;;;5032257;28;20022;-68
2023/03/16 00:31:24;;;;;;;2.58;2.13;;;;;;;;;;5031870;28;20400;-69
2023/03/16 00:33:50;;;;;;;2.13;1.92;;;;;;;;;;5031868;28;20071;-68
2023/03/16 00:36:16;;;;;;;2.45;1.90;;;;;;;;;;5031830;28;20125;-69
2023/03/16 00:38:45;;;;;;;1.85;1.73;;;;;;;;;;5031770;28;20048;-68
2023/03/16 00:41:14;;;;;;;2.95;2.10;;;;;;;;;;5031844;28;20504;-68
2023/03/16 00:43:40;;;;;;;3.95;2.03;;;;;;;;;;5031823;28;20033;-68
2023/03/16 00:46:11;;;;;;;2.42;1.98;;;;;;;;;;5034338;28;20033;-68
2023/03/16 00:48:41;;;;;;;2.35;1.90;;;;;;;;;;5035337;28;20028;-67
2023/03/16 00:51:11;;;;;;;1.90;1.70;;;;;;;;;;5035273;28;20048;-68
2023/03/16 00:53:37;;;;;;;2.55;2.13;;;;;;;;;;5035515;28;20128;-68
2023/03/16 00:56:03;;;;;;;2.28;1.95;;;;;;;;;;5035442;28;20030;-68
2023/03/16 00:58:34;;;;;;;2.17;1.98;;;;;;;;;;5035373;28;20583;-69
2023/03/16 01:01:26;;;;;;;2.20;2.00;;;;;;;;;;5033947;28;20120;-68
2023/03/16 01:03:53;;;;;;;2.90;2.00;;;;;;;;;;5033902;28;20086;-68
2023/03/16 01:06:19;;;;;;;2.00;1.80;;;;;;;;;;5035172;28;20472;-69
2023/03/16 01:08:45;;;;;;;1.80;1.70;;;;;;;;;;5034915;28;20045;-69
2023/03/16 01:11:21;;;;;;;2.75;2.00;;;;;;;;;;5034929;28;20025;-69
2023/03/16 01:13:48;;;;;;;2.38;1.92;;;;;;;;;;5034849;28;20477;-69
2023/03/16 01:16:17;;;;;;;2.35;1.80;;;;;;;;;;5034862;28;20037;-69
2023/03/16 01:18:43;;;;;;;1.98;1.88;;;;;;;;;;5035021;28;20104;-67
2023/03/16 01:21:12;;;;;;;2.17;1.80;;;;;;;;;;5034737;28;20033;-69
2023/03/16 01:23:39;;;;;;;2.13;1.90;;;;;;;;;;5034643;28;20033;-69
2023/03/16 01:26:07;;;;;;;3.33;2.30;;;;;;;;;;5034875;28;20428;-69
2023/03/16 01:28:33;;;;;;;2.67;1.70;;;;;;;;;;5033287;28;20466;-69
2023/03/16 01:31:02;;;;;;;2.65;2.00;;;;;;;;;;5034774;28;20029;-68
2023/03/16 01:33:28;;;;;;;2.15;1.80;;;;;;;;;;5034462;28;20071;-69
2023/03/16 01:36:04;;;;;;;2.30;1.80;;;;;;;;;;5034542;28;20026;-69
2023/03/16 01:38:29;;;;;;;2.22;1.95;;;;;;;;;;5034212;28;20045;-68
2023/03/16 01:40:56;;;;;;;2.40;2.00;;;;;;;;;;5034282;28;20390;-69
2023/03/16 01:43:25;;;;;;;2.88;2.15;;;;;;;;;;5034545;28;20091;-69
2023/03/16 01:45:54;;;;;;;2.15;1.70;;;;;;;;;;5034200;28;20497;-69
2023/03/16 01:48:24;;;;;;;2.20;1.98;;;;;;;;;;5034562;28;20450;-69
2023/03/16 01:50:52;;;;;;;2.35;1.85;;;;;;;;;;5034550;28;20025;-68
2023/03/16 01:53:20;;;;;;;2.30;2.10;;;;;;;;;;5034303;28;20033;-68
2023/03/16 01:55:47;;;;;;;2.83;1.90;;;;;;;;;;5034000;28;20031;-68
2023/03/16 01:58:13;;;;;;;2.10;1.90;;;;;;;;;;5034079;28;20017;-69
2023/03/16 02:00:40;;;;;;;2.47;1.95;;;;;;;;;;5034271;28;20032;-69
2023/03/16 02:03:18;;;;;;;2.15;1.55;;;;;;;;;;5032653;28;20040;-69
2023/03/16 02:05:51;;;;;;;1.75;1.65;;;;;;;;;;5033858;28;20040;-68
2023/03/16 02:08:18;;;;;;;2.13;1.92;;;;;;;;;;5034174;28;20030;-68
2023/03/16 02:10:44;;;;;;;2.58;2.20;;;;;;;;;;5034135;28;20519;-69
2023/03/16 02:13:11;;;;;;;3.00;2.20;;;;;;;;;;5033706;28;20041;-68
2023/03/16 02:15:37;;;;;;;2.20;2.00;;;;;;;;;;5033725;28;20392;-68
2023/03/16 02:18:06;;;;;;;2.65;1.92;;;;;;;;;;5033583;28;20151;-69
2023/03/16 02:21:21;;;;;;;2.45;1.83;;;;;;;;;;5033616;28;20032;-66
2023/03/16 02:23:49;;;;;;;2.38;2.03;;;;;;;;;;5031715;28;20128;-68
2023/03/16 02:26:24;;;;;;;2.58;1.92;;;;;;;;;;5033733;28;20040;-68
2023/03/16 02:29:24;;;;;;;2.15;1.95;;;;;;;;;;5033447;28;20053;-68
2023/03/16 02:31:51;;;;;;;2.72;2.00;;;;;;;;;;5033332;28;20509;-69
2023/03/16 02:34:18;;;;;;;2.10;1.90;;;;;;;;;;5033440;28;20385;-68
2023/03/16 02:36:46;;;;;;;2.70;2.03;;;;;;;;;;5033250;28;20017;-68
2023/03/16 02:39:11;;;;;;;2.28;1.90;;;;;;;;;;5033197;28;20042;-69
2023/03/16 02:41:38;;;;;;;2.40;1.73;;;;;;;;;;5033258;28;20060;-68
2023/03/16 02:44:13;;;;;;;2.15;1.90;;;;;;;;;;5033156;28;20470;-68
2023/03/16 02:46:42;;;;;;;1.63;1.52;;;;;;;;;;5033086;28;20084;-68
2023/03/16 02:49:23;;;;;;;1.80;1.70;;;;;;;;;;5031855;28;20473;-68
2023/03/16 02:51:49;;;;;;;2.30;1.88;;;;;;;;;;5033081;28;20112;-68
2023/03/16 02:54:15;;;;;;;2.22;1.90;;;;;;;;;;5033019;28;20105;-68
2023/03/16 02:56:40;;;;;;;2.45;2.25;;;;;;;;;;5032916;28;20516;-67
2023/03/16 02:59:06;;;;;;;2.42;2.00;;;;;;;;;;5033003;28;20021;-67
2023/03/16 03:01:33;;;;;;;2.00;1.80;;;;;;;;;;5032864;28;20029;-68
2023/03/16 03:04:00;;;;;;;2.80;1.90;;;;;;;;;;5033137;28;20026;-67
2023/03/16 03:06:26;;;;;;;2.88;2.00;;;;;;;;;;5032695;28;20026;-68
2023/03/16 03:08:52;;;;;;;1.80;1.70;;;;;;;;;;5032593;28;20029;-68
2023/03/16 03:11:20;;;;;;;2.38;1.83;;;;;;;;;;5032722;28;20358;-68
2023/03/16 03:13:46;;;;;;;2.20;1.90;;;;;;;;;;5032727;28;20104;-68
2023/03/16 03:16:12;;;;;;;2.28;1.80;;;;;;;;;;5032633;28;20100;-68
2023/03/16 03:18:38;;;;;;;3.03;2.00;;;;;;;;;;5031405;28;20028;-68
2023/03/16 03:21:04;;;;;;;2.90;2.10;;;;;;;;;;5032833;28;20049;-69
2023/03/16 03:23:30;;;;;;;2.33;2.05;;;;;;;;;;5032618;28;20018;-69
2023/03/16 03:25:57;;;;;;;2.22;2.03;;;;;;;;;;5032451;28;20048;-68
2023/03/16 03:28:23;;;;;;;2.42;1.98;;;;;;;;;;5032770;28;20033;-69
2023/03/16 03:30:50;;;;;;;2.47;1.73;;;;;;;;;;5032769;28;20022;-68
2023/03/16 03:33:16;;;;;;;1.75;1.65;;;;;;;;;;5032366;28;20037;-69
2023/03/16 03:35:41;;;;;;;2.00;1.85;;;;;;;;;;5032706;28;20029;-67
2023/03/16 03:38:07;;;;;;;2.08;1.90;;;;;;;;;;5032418;28;20045;-68
2023/03/16 03:40:33;;;;;;;2.47;2.00;;;;;;;;;;5032389;28;20022;-68
2023/03/16 03:43:00;;;;;;;1.83;1.73;;;;;;;;;;5032367;28;20488;-67
2023/03/16 03:45:26;;;;;;;3.22;2.00;;;;;;;;;;5031169;28;20440;-69
2023/03/16 03:47:53;;;;;;;3.78;2.05;;;;;;;;;;5032279;28;20021;-68
2023/03/16 03:50:20;;;;;;;2.78;1.80;;;;;;;;;;5032326;28;20037;-68
2023/03/16 03:52:46;;;;;;;2.17;1.77;;;;;;;;;;5032284;28;20536;-68
2023/03/16 03:55:11;;;;;;;2.75;1.95;;;;;;;;;;5032266;28;20026;-68
2023/03/16 03:57:37;;;;;;;2.15;1.77;;;;;;;;;;5032230;28;20416;-68
2023/03/16 04:00:09;;;;;;;3.90;2.20;;;;;;;;;;5032465;28;20453;-68
2023/03/16 04:02:35;;;;;;;2.33;2.13;;;;;;;;;;5032250;28;20589;-69
2023/03/16 04:05:05;;;;;;;2.72;1.95;;;;;;;;;;5032399;28;20109;-69
2023/03/16 04:07:30;;;;;;;2.97;1.90;;;;;;;;;;5032174;28;20029;-68
2023/03/16 04:09:56;;;;;;;2.17;1.80;;;;;;;;;;5032091;28;20108;-69
2023/03/16 04:12:22;;;;;;;2.08;1.90;;;;;;;;;;5032061;28;20371;-69
2023/03/16 04:14:48;;;;;;;3.20;1.95;;;;;;;;;;5032324;28;20427;-69
2023/03/16 04:17:13;;;;;;;2.70;1.83;;;;;;;;;;5031967;28;20063;-69
2023/03/16 04:19:39;;;;;;;2.97;2.00;;;;;;;;;;5032914;28;20075;-68
2023/03/16 04:22:06;;;;;;;2.72;1.92;;;;;;;;;;5036126;28;20488;-69
2023/03/16 04:24:33;;;;;;;2.67;2.00;;;;;;;;;;5036098;28;20044;-67
2023/03/16 04:26:59;;;;;;;2.63;2.22;;;;;;;;;;5035687;28;20482;-68
2023/03/16 04:29:25;;;;;;;2.05;1.83;;;;;;;;;;5035663;28;20044;-68
2023/03/16 04:31:52;;;;;;;3.22;2.47;;;;;;;;;;5035901;28;20033;-69
2023/03/16 04:34:23;;;;;;;2.72;1.92;;;;;;;;;;5035643;28;20025;-68
2023/03/16 04:36:52;;;;;;;1.80;1.70;;;;;;;;;;5035541;28;20033;-68
2023/03/16 04:39:19;;;;;;;2.10;1.90;;;;;;;;;;5035360;28;20053;-69
2023/03/16 04:41:45;;;;;;;2.30;2.10;;;;;;;;;;5035754;28;20025;-68
2023/03/16 04:44:10;;;;;;;2.30;1.70;;;;;;;;;;5035459;28;20477;-69
2023/03/16 04:46:36;;;;;;;3.13;2.00;;;;;;;;;;5035216;28;20044;-69
2023/03/16 04:49:01;;;;;;;2.90;1.98;;;;;;;;;;5035303;28;20053;-67
2023/03/16 04:51:28;;;;;;;1.80;1.60;;;;;;;;;;5035248;28;20029;-69
2023/03/16 04:53:54;;;;;;;2.78;2.00;;;;;;;;;;5035596;28;20053;-69
2023/03/16 04:56:20;;;;;;;2.03;1.83;;;;;;;;;;5035202;28;20060;-69
2023/03/16 04:58:48;;;;;;;2.58;2.25;;;;;;;;;;5035432;28;20378;-69
2023/03/16 05:01:15;;;;;;;2.20;2.00;;;;;;;;;;5035163;28;20025;-69
2023/03/16 05:03:42;;;;;;;2.35;1.98;;;;;;;;;;5035403;28;20017;-68
2023/03/16 05:06:10;;;;;;;3.33;1.88;;;;;;;;;;5035173;28;20037;-69
2023/03/16 05:08:36;;;;;;;3.83;2.20;;;;;;;;;;5034911;28;20038;-69
2023/03/16 05:11:02;;;;;;;2.85;2.00;;;;;;;;;;5034925;28;20033;-69
2023/03/16 05:13:27;;;;;;;2.25;1.90;;;;;;;;;;5034937;28;20071;-69
2023/03/16 05:15:53;;;;;;;2.10;1.80;;;;;;;;;;5034676;28;20021;-69
2023/03/16 05:18:20;;;;;;;2.15;1.90;;;;;;;;;;5034823;28;20152;-69
2023/03/16 05:20:50;;;;;;;2.92;1.70;;;;;;;;;;5034730;28;20041;-69
2023/03/16 05:23:15;;;;;;;2.47;1.83;;;;;;;;;;5034996;28;20377;-68
2023/03/16 05:25:41;;;;;;;2.40;1.98;;;;;;;;;;5034512;28;20025;-69
2023/03/16 05:28:07;;;;;;;2.28;1.90;;;;;;;;;;5034624;28;20030;-69
2023/03/16 05:30:32;;;;;;;2.58;2.15;;;;;;;;;;5032777;28;20580;-68
2023/03/16 05:32:58;;;;;;;2.92;1.90;;;;;;;;;;5034795;28;20033;-69
2023/03/16 05:35:23;;;;;;;2.35;1.98;;;;;;;;;;5034660;28;20037;-68
2023/03/16 05:37:49;;;;;;;2.10;1.90;;;;;;;;;;5034251;28;20029;-68
2023/03/16 05:40:21;;;;;;;3.78;2.00;;;;;;;;;;5034368;28;20100;-68
2023/03/16 05:42:52;;;;;;;2.85;2.28;;;;;;;;;;5034426;28;20087;-68
2023/03/16 05:45:18;;;;;;;2.50;2.10;;;;;;;;;;5034252;28;20041;-68
2023/03/16 05:47:44;;;;;;;2.83;1.98;;;;;;;;;;5034240;28;20030;-69
2023/03/16 05:50:11;;;;;;;2.03;1.90;;;;;;;;;;5032832;28;20022;-69
2023/03/16 05:52:38;;;;;;;2.30;1.92;;;;;;;;;;5034046;28;20470;-69
2023/03/16 05:55:08;;;;;;;3.15;2.10;;;;;;;;;;5033986;28;20071;-69
2023/03/16 05:57:34;;;;;;;3.58;2.00;;;;;;;;;;5034052;28;20493;-68
2023/03/16 06:00:01;;;;;;;2.15;1.95;;;;;;;;;;5034215;28;20034;-68
2023/03/16 06:02:27;;;;;;;2.75;2.00;;;;;;;;;;5033933;28;20104;-68
2023/03/16 06:04:53;;;;;;;3.17;2.30;;;;;;;;;;5033825;28;20112;-68
2023/03/16 06:07:19;;;;;;;2.85;2.05;;;;;;;;;;5034060;28;20112;-67
2023/03/16 06:09:45;;;;;;;2.60;2.10;;;;;;;;;;5033944;28;20471;-67
2023/03/16 06:12:10;;;;;;;2.42;1.95;;;;;;;;;;5041276;28;20060;-68
2023/03/16 06:14:36;;;;;;;2.17;2.00;;;;;;;;;;5051980;28;20028;-67
2023/03/16 06:17:02;;;;;;;2.38;1.85;;;;;;;;;;5053801;28;20057;-67
2023/03/16 06:19:27;;;;;;;2.28;2.03;;;;;;;;;;5053708;28;20104;-68
2023/03/16 06:21:53;;;;;;;2.67;2.30;;;;;;;;;;5053490;28;20025;-68
2023/03/16 06:24:18;;;;;;;2.78;2.17;;;;;;;;;;5053401;28;20029;-67
2023/03/16 06:26:44;;;;;;;2.30;1.92;;;;;;;;;;5053197;28;20481;-67
2023/03/16 06:29:10;;;;;;;3.95;2.22;;;;;;;;;;5052107;28;20045;-67
2023/03/16 06:31:36;;;;;;;2.60;2.40;;;;;;;;;;5052889;28;20374;-67
2023/03/16 06:34:01;;;;;;;2.72;2.00;;;;;;;;;;5052610;28;20027;-68
2023/03/16 06:36:27;;;;;;;2.30;2.10;;;;;;;;;;5052458;28;20033;-68
2023/03/16 06:38:53;;;;;;;2.40;2.10;;;;;;;;;;5052276;28;20037;-67
2023/03/16 06:41:18;;;;;;;2.20;2.00;;;;;;;;;;5052548;28;20021;-68
2023/03/16 06:43:44;;;;;;;3.30;2.15;;;;;;;;;;5052024;28;20059;-68
2023/03/16 06:46:10;;;;;;;3.83;2.35;;;;;;;;;;5052919;28;20400;-67
2023/03/16 06:48:35;;;;;;;2.25;1.80;;;;;;;;;;5052773;28;20120;-67
2023/03/16 06:51:01;;;;;;;2.35;2.15;;;;;;;;;;5052918;28;20027;-68
2023/03/16 06:53:27;;;;;;;6.78;2.22;;;;;;;;;;5052748;28;20048;-67
2023/03/16 06:55:52;;;;;;;3.28;2.45;;;;;;;;;;5052816;28;20021;-67
2023/03/16 06:58:18;;;;;;;4.15;2.28;;;;;;;;;;5052766;28;20025;-67
2023/03/16 07:00:44;;;;;;;2.38;2.03;;;;;;;;;;5052682;28;20040;-67
2023/03/16 07:03:09;;;;;;;2.17;1.92;;;;;;;;;;5052573;28;20386;-67
2023/03/16 07:05:35;;;;;;;2.47;2.15;;;;;;;;;;5052406;28;20033;-67
2023/03/16 07:08:03;;;;;;;5.13;2.38;;;;;;;;;;5052492;28;20037;-67
2023/03/16 07:10:29;;;;;;;4.43;2.35;;;;;;;;;;5049143;28;20028;-69
2023/03/16 07:12:55;;;;;;;2.95;2.40;;;;;;;;;;5047890;28;20420;-68
2023/03/16 07:15:20;;;;;;;2.70;2.33;;;;;;;;;;5046658;28;20024;-68
2023/03/16 07:17:46;;;;;;;3.55;2.15;;;;;;;;;;5047822;28;20521;-67
2023/03/16 07:20:12;;;;;;;2.55;2.30;;;;;;;;;;5047780;28;20029;-68
2023/03/16 07:22:39;;;;;;;4.13;2.25;;;;;;;;;;5047307;28;20037;-68
2023/03/16 07:25:06;;;;;;;3.67;2.60;;;;;;;;;;5048170;28;20492;-68
2023/03/16 07:27:31;;;;;;;3.33;2.28;;;;;;;;;;5048161;28;20032;-66
2023/03/16 07:29:58;;;;;;;3.25;2.17;;;;;;;;;;5043824;28;20381;-66
2023/03/16 07:32:24;;;;;;;2.42;2.22;;;;;;;;;;5050987;28;20106;-66
2023/03/16 07:34:49;;;;;;;4.05;2.45;;;;;;;;;;5049986;28;20593;-66
2023/03/16 07:37:15;;;;;;;2.38;2.05;;;;;;;;;;5051062;28;20028;-66
2023/03/16 07:39:41;;;;;;;3.38;2.40;;;;;;;;;;5050675;28;20120;-66
2023/03/16 07:42:07;;;;;;;2.65;2.13;;;;;;;;;;5050921;28;20369;-66
2023/03/16 07:44:32;;;;;;;3.33;2.40;;;;;;;;;;5051303;28;20032;-66
2023/03/16 07:46:58;;;;;;;3.85;2.67;;;;;;;;;;5049609;28;20536;-66
2023/03/16 07:49:23;;;;;;;2.50;2.20;;;;;;;;;;5048313;28;20032;-68
2023/03/16 07:51:50;;;;;;;2.80;2.30;;;;;;;;;;5047416;28;20104;-67
2023/03/16 07:54:18;;;;;;;2.50;2.28;;;;;;;;;;5052061;28;20805;-68
2023/03/16 07:56:44;;;;;;;2.47;2.20;;;;;;;;;;5054430;28;20029;-67
2023/03/16 07:59:11;;;;;;;2.85;2.40;;;;;;;;;;5054509;28;20044;-67
2023/03/16 08:01:36;;;;;;;3.85;2.67;;;;;;;;;;5054798;28;20540;-67
2023/03/16 08:04:03;;;;;;;2.63;2.30;;;;;;;;;;5054415;28;20031;-68
2023/03/16 08:06:28;;;;;;;4.13;2.80;;;;;;;;;;5054344;28;20050;-68
2023/03/16 08:08:54;;;;;;;2.72;2.47;;;;;;;;;;5054411;28;20025;-68
2023/03/16 08:11:22;;;;;;;4.38;2.92;;;;;;;;;;5054334;28;20094;-68
2023/03/16 08:13:55;;;;;;;3.88;2.97;;;;;;;;;;5054400;28;20127;-67
2023/03/16 08:16:24;;;;;;;3.67;2.75;;;;;;;;;;5054516;28;20044;-68
2023/03/16 08:18:50;;;;;;;4.00;3.08;;;;;;;;;;5054178;28;20165;-66
2023/03/16 08:21:17;;;;;;;3.55;2.50;;;;;;;;;;5054401;28;20405;-67
2023/03/16 08:23:48;;;;;;;3.92;2.75;;;;;;;;;;5054073;28;20033;-67
2023/03/16 08:26:20;;;;;;;4.95;3.50;;;;;;;;;;5054192;28;20057;-67
2023/03/16 08:28:46;;;;;;;4.20;2.92;;;;;;;;;;5053021;28;20036;-67
2023/03/16 08:31:13;;;;;;;4.45;3.15;;;;;;;;;;5053103;28;20120;-66
2023/03/16 08:33:44;;;;;;;4.63;2.90;;;;;;;;;;5052815;28;20032;-66
2023/03/16 08:36:11;;;;;;;3.70;3.22;;;;;;;;;;5052141;28;20531;-66
2023/03/16 08:38:38;;;;;;;4.68;3.40;;;;;;;;;;5052482;28;20068;-66
2023/03/16 08:41:05;;;;;;;5.15;3.30;;;;;;;;;;5053620;28;20113;-66
2023/03/16 08:43:31;;;;;;;4.60;3.63;;;;;;;;;;5051769;28;20051;-66
2023/03/16 08:45:58;;;;;;;4.70;3.30;;;;;;;;;;5053643;28;20078;-65
2023/03/16 08:48:24;;;;;;;6.28;4.10;;;;;;;;;;5053514;28;20032;-65
2023/03/16 08:50:52;;;;;;;5.68;3.88;;;;;;;;;;5053937;28;20112;-66
2023/03/16 08:53:19;;;;;;;6.10;3.88;;;;;;;;;;5053690;28;20040;-66
2023/03/16 08:55:45;;;;;;;5.55;3.80;;;;;;;;;;5053366;28;20040;-65
2023/03/16 08:58:11;;;;;;;7.93;4.25;;;;;;;;;;5051483;28;20040;-66
2023/03/16 09:00:38;;;;;;;5.70;4.00;;;;;;;;;;5053418;28;20412;-67
2023/03/16 09:03:05;;;;;;;5.15;3.60;;;;;;;;;;5053272;28;20021;-65
2023/03/16 09:05:32;;;;;;;7.53;4.00;;;;;;;;;;5052438;28;20064;-66
2023/03/16 09:07:59;;;;;;;6.80;4.25;;;;;;;;;;5053161;28;20029;-66
2023/03/16 09:10:26;;;;;;;6.13;4.20;;;;;;;;;;5053158;28;20424;-66
2023/03/16 09:12:52;;;;;;;6.93;4.00;;;;;;;;;;5053177;28;20485;-65
2023/03/16 09:15:19;;;;;;;7.50;4.43;;;;;;;;;;5052881;28;20033;-66
2023/03/16 09:17:46;;;;;;;5.07;4.00;;;;;;;;;;5049964;28;20160;-66
2023/03/16 09:20:15;;;;;;;8.20;4.53;;;;;;;;;;5052922;28;20037;-66
2023/03/16 09:22:40;;;;;;;5.90;4.63;;;;;;;;;;5053257;28;20029;-66
2023/03/16 09:25:09;;;;;;;6.60;4.72;;;;;;;;;;5051565;28;20917;-66
2023/03/16 09:27:38;;;;;;;5.15;4.40;;;;;;;;;;5051362;28;20029;-66
2023/03/16 09:30:08;;;;;;;6.90;4.60;;;;;;;;;;5051538;28;20033;-66
2023/03/16 09:32:33;;;;;;;6.13;4.70;;;;;;;;;;5052872;28;20120;-67
2023/03/16 09:34:59;;;;;;;7.95;5.07;;;;;;;;;;5052836;28;20045;-65
2023/03/16 09:37:25;;;;;;;7.47;4.82;;;;;;;;;;5052605;28;20029;-65
2023/03/16 09:39:51;;;;;;;6.45;4.80;;;;;;;;;;5050637;28;20077;-65
2023/03/16 09:42:35;;;;;;;7.90;4.97;;;;;;;;;;5050484;28;20024;-65
2023/03/16 09:45:16;;;;;;;5.47;4.50;;;;;;;;;;5052398;28;20112;-66
2023/03/16 09:47:44;;;;;;;7.75;4.93;;;;;;;;;;5049808;28;20029;-65
2023/03/16 09:50:23;;;;;;;6.57;4.85;;;;;;;;;;5049177;28;20115;-67
2023/03/16 09:52:59;;;;;;;12.75;5.50;;;;;;;;;;5051033;28;20021;-66
2023/03/16 09:55:32;;;;;;;6.82;4.22;;;;;;;;;;5049231;28;20033;-68
2023/03/16 09:58:00;;;;;;;8.18;5.50;;;;;;;;;;5046933;28;20028;-66
2023/03/16 10:00:32;;;;;;;9.40;5.38;;;;;;;;;;5051367;28;20028;-66
2023/03/16 10:03:13;;;;;;;6.90;4.95;;;;;;;;;;5059429;28;20043;-66
2023/03/16 10:05:39;;;;;;;14.73;5.55;;;;;;;;;;5046040;28;20041;-67
2023/03/16 10:08:08;;;;;;;6.47;4.88;;;;;;;;;;5032593;28;20029;-66
2023/03/16 10:11:04;;;;;;;6.93;4.93;;;;;;;;;;5032158;28;20021;-65
2023/03/16 10:13:42;;;;;;;7.05;5.00;;;;;;;;;;5030825;28;20028;-67
2023/03/16 10:16:18;;;;;;;9.13;5.03;;;;;;;;;;5031562;28;20041;-65
2023/03/16 10:18:47;;;;;;;7.20;4.95;;;;;;;;;;5031048;28;20083;-65
2023/03/16 10:21:17;;;;;;;9.65;5.10;;;;;;;;;;5049772;28;20393;-66
2023/03/16 10:23:44;;;;;;;12.20;4.95;;;;;;;;;;5052273;28;20366;-65
2023/03/16 10:26:15;;;;;;;9.10;5.00;;;;;;;;;;5049678;28;20235;-66
2023/03/16 10:28:41;;;;;;;9.80;4.93;;;;;;;;;;5050844;28;20529;-65
2023/03/16 10:31:10;;;;;;;10.70;5.13;;;;;;;;;;5051630;28;20037;-65
2023/03/16 10:33:36;;;;;;;8.95;5.15;;;;;;;;;;5051987;28;20032;-65
2023/03/16 10:36:34;;;;;;;8.32;4.90;;;;;;;;;;5049570;28;20350;-65
2023/03/16 10:39:06;;;;;;;6.40;4.63;;;;;;;;;;5048577;28;20493;-65
2023/03/16 10:41:41;;;;;;;8.73;4.60;;;;;;;;;;5050710;28;20051;-66
2023/03/16 10:44:22;;;;;;;8.50;4.78;;;;;;;;;;5051211;28;20032;-66
2023/03/16 10:46:57;;;;;;;8.70;4.90;;;;;;;;;;5051344;28;20150;-65
2023/03/16 10:49:27;;;;;;;9.82;5.20;;;;;;;;;;5050458;28;20071;-66
2023/03/16 10:51:56;;;;;;;11.13;5.15;;;;;;;;;;5049954;28;20025;-67
2023/03/16 10:54:38;;;;;;;9.80;4.72;;;;;;;;;;5048777;28;20024;-67
2023/03/16 10:57:25;;;;;;;13.40;5.03;;;;;;;;;;5051501;28;20052;-67
2023/03/16 10:59:54;;;;;;;6.72;4.60;;;;;;;;;;5051289;28;20060;-66
2023/03/16 11:02:24;;;;;;;8.32;5.00;;;;;;;;;;5051100;28;20116;-66
2023/03/16 11:04:50;;;;;;;8.55;4.97;;;;;;;;;;5051132;28;20025;-66
2023/03/16 11:07:20;;;;;;;9.30;4.90;;;;;;;;;;5051098;28;20044;-66
2023/03/16 11:09:46;;;;;;;7.05;4.85;;;;;;;;;;5050967;28;20029;-66
2023/03/16 11:12:30;;;;;;;10.20;4.85;;;;;;;;;;5051224;28;20159;-65
2023/03/16 11:15:22;;;;;;;8.45;4.47;;;;;;;;;;5050960;28;20037;-66
2023/03/16 11:17:52;;;;;;;7.68;5.00;;;;;;;;;;5049677;28;20033;-66
2023/03/16 11:20:29;;;;;;;9.43;4.97;;;;;;;;;;5051216;28;20467;-66
2023/03/16 11:22:55;;;;;;;7.22;4.88;;;;;;;;;;5050892;28;20033;-67
2023/03/16 11:25:32;;;;;;;7.50;4.65;;;;;;;;;;5051013;28;20170;-66
2023/03/16 11:28:37;;;;;;;7.72;4.47;;;;;;;;;;5050625;28;20495;-66
2023/03/16 11:32:01;;;;;;;7.40;4.72;;;;;;;;;;5050287;28;20485;-66
2023/03/16 11:34:29;;;;;;;7.28;5.10;;;;;;;;;;5011699;28;20540;-65
2023/03/16 11:37:16;;;;;;;8.50;4.72;;;;;;;;;;5046301;28;20127;-66
2023/03/16 11:40:27;;;;;;;5.70;4.63;;;;;;;;;;5050159;28;20131;-67
2023/03/16 11:43:08;;;;;;;6.10;4.38;;;;;;;;;;5050721;28;20481;-67
2023/03/16 11:45:47;;;;;;;8.30;5.15;;;;;;;;;;5050705;28;20037;-67
2023/03/16 11:48:21;;;;;;;9.52;4.82;;;;;;;;;;5050816;28;20512;-66
2023/03/16 11:51:13;;;;;;;7.60;4.53;;;;;;;;;;5050633;28;20032;-67
2023/03/16 11:54:03;;;;;;;6.38;4.60;;;;;;;;;;5050241;28;20037;-67
2023/03/16 11:56:41;;;;;;;7.43;4.43;;;;;;;;;;5050320;28;20497;-67
2023/03/16 11:59:10;;;;;;;6.00;4.40;;;;;;;;;;5050736;28;20459;-68
2023/03/16 12:01:44;;;;;;;7.80;4.55;;;;;;;;;;5050397;28;20158;-67
2023/03/16 12:04:21;;;;;;;11.00;4.88;;;;;;;;;;5050360;28;20037;-66
2023/03/16 12:06:59;;;;;;;7.53;4.93;;;;;;;;;;5050138;28;20413;-66
2023/03/16 12:09:56;;;;;;;7.15;5.18;;;;;;;;;;5050663;28;20389;-67
2023/03/16 12:12:39;;;;;;;7.38;4.57;;;;;;;;;;5050292;28;20489;-67
2023/03/16 12:15:21;;;;;;;8.07;4.85;;;;;;;;;;5050317;28;20491;-66
2023/03/16 12:17:50;;;;;;;11.15;5.15;;;;;;;;;;5050547;28;20037;-67
2023/03/16 12:20:30;;;;;;;10.75;5.20;;;;;;;;;;5050407;28;20376;-67
2023/03/16 12:23:02;;;;;;;;;;;;;;;;;;5050732;28;20033;-67
2023/03/16 12:25:35;;;;;;;16.38;4.50;;;;;;;;;;5050288;28;19917;-66
2023/03/16 12:28:06;;;;;;;7.57;3.97;;;;;;;;;;5049104;28;20033;-66
2023/03/16 12:30:38;;;;;;;12.95;4.22;;;;;;;;;;5050120;28;20033;-68
2023/03/16 12:33:25;;;;;;;10.10;4.07;;;;;;;;;;5050162;28;20485;-68
2023/03/16 12:36:01;;;;;;;7.32;3.88;;;;;;;;;;5050091;28;20091;-67
2023/03/16 12:38:36;;;;;;;6.47;3.83;;;;;;;;;;5048311;28;20070;-67
2023/03/16 12:41:30;;;;;;;5.18;3.90;;;;;;;;;;5050460;28;20056;-69
2023/03/16 12:44:11;;;;;;;8.15;4.28;;;;;;;;;;5052684;28;20029;-68
2023/03/16 12:47:14;;;;;;;8.35;4.10;;;;;;;;;;5053562;28;20060;-68
2023/03/16 12:49:40;;;;;;;5.68;4.18;;;;;;;;;;5053657;28;20036;-69
2023/03/16 12:52:09;;;;;;;6.60;3.92;;;;;;;;;;5053508;28;20036;-67
2023/03/16 12:54:35;;;;;;;8.07;3.70;;;;;;;;;;5053780;28;20021;-67
2023/03/16 12:57:06;;;;;;;12.85;4.80;;;;;;;;;;5053470;28;20033;-68
2023/03/16 12:59:57;;;;;;;12.10;4.60;;;;;;;;;;5053818;28;20025;-67
2023/03/16 13:02:30;;;;;;;6.55;4.00;;;;;;;;;;5053496;28;20422;-68
2023/03/16 13:04:59;;;;;;;7.72;4.20;;;;;;;;;;5053364;28;20116;-68
2023/03/16 13:07:27;;;;;;;9.38;4.30;;;;;;;;;;5053433;28;20532;-68
2023/03/16 13:10:01;;;;;;;9.07;4.70;;;;;;;;;;5053610;28;20041;-68
2023/03/16 13:12:31;;;;;;;10.00;4.05;;;;;;;;;;5050252;28;20025;-68
2023/03/16 13:14:58;;;;;;;9.75;3.83;;;;;;;;;;5051128;28;20104;-68
2023/03/16 13:17:30;;;;;;;7.43;4.47;;;;;;;;;;5053131;28;20077;-67
2023/03/16 13:20:12;;;;;;;8.23;4.18;;;;;;;;;;5053133;28;20040;-67
2023/03/16 13:22:51;;;;;;;12.43;4.38;;;;;;;;;;5053282;28;20060;-68
2023/03/16 13:25:29;;;;;;;6.53;3.83;;;;;;;;;;5051791;28;20488;-68
2023/03/16 13:27:57;;;;;;;5.78;4.07;;;;;;;;;;5052946;28;20266;-68
2023/03/16 13:30:29;;;;;;;5.35;3.72;;;;;;;;;;5052924;28;20047;-70
2023/03/16 13:33:00;;;;;;;9.35;4.32;;;;;;;;;;5052596;28;20029;-66
2023/03/16 13:35:29;;;;;;;7.20;4.07;;;;;;;;;;5053217;28;20037;-67
2023/03/16 13:38:04;;;;;;;10.38;4.50;;;;;;;;;;5050222;28;20059;-67
2023/03/16 13:40:31;;;;;;;12.88;5.60;;;;;;;;;;5043209;28;20031;-68
2023/03/16 13:42:58;;;;;;;8.18;3.95;;;;;;;;;;5051737;28;20551;-68
2023/03/16 13:45:36;;;;;;;9.93;4.43;;;;;;;;;;5052670;28;20037;-67
2023/03/16 13:48:02;;;;;;;6.88;4.20;;;;;;;;;;5052645;28;20104;-67
2023/03/16 13:50:32;;;;;;;5.95;4.10;;;;;;;;;;5050742;28;20107;-68
2023/03/16 13:53:00;;;;;;;6.10;3.80;;;;;;;;;;5051140;28;20040;-67
2023/03/16 13:55:35;;;;;;;6.30;4.15;;;;;;;;;;5051738;28;20064;-67
2023/03/16 13:58:02;;;;;;;7.38;3.65;;;;;;;;;;5052575;28;20120;-68
2023/03/16 14:00:36;;;;;;;6.20;3.95;;;;;;;;;;5050910;28;20025;-68
2023/03/16 14:03:16;;;;;;;5.13;4.03;;;;;;;;;;5052259;28;20064;-69
2023/03/16 14:05:43;;;;;;;4.80;3.80;;;;;;;;;;5042806;28;20071;-68
2023/03/16 14:08:28;;;;;;;5.68;3.95;;;;;;;;;;5051083;28;20029;-66
2023/03/16 14:10:55;;;;;;;7.20;4.00;;;;;;;;;;5050949;28;20646;-66
2023/03/16 14:13:35;;;;;;;5.38;3.70;;;;;;;;;;5051956;28;20067;-67
2023/03/16 14:16:09;;;;;;;5.82;4.05;;;;;;;;;;5041815;28;20053;-67
2023/03/16 14:18:40;;;;;;;7.93;3.95;;;;;;;;;;5041617;28;20065;-67
2023/03/16 14:21:12;;;;;;;8.07;3.90;;;;;;;;;;5037084;28;20030;-68
2023/03/16 14:23:42;;;;;;;5.30;4.32;;;;;;;;;;5049951;28;20060;-68
2023/03/16 14:26:17;;;;;;;4.97;4.00;;;;;;;;;;5031853;28;20509;-69
2023/03/16 14:29:01;;;;;;;8.23;3.92;;;;;;;;;;5032100;28;20061;-70
2023/03/16 14:31:39;;;;;;;5.32;3.97;;;;;;;;;;5031904;28;20057;-69
2023/03/16 14:34:27;;;;;;;7.25;4.03;;;;;;;;;;5031865;28;20743;-68
2023/03/16 14:37:11;;;;;;;6.45;4.15;;;;;;;;;;5031194;28;20079;-69
2023/03/16 14:39:39;;;;;;;7.72;4.10;;;;;;;;;;5030908;28;20045;-69
2023/03/16 14:42:13;;;;;;;7.65;3.92;;;;;;;;;;5030207;28;20477;-71
2023/03/16 14:44:39;;;;;;;5.53;3.58;;;;;;;;;;5030235;28;20363;-69
2023/03/16 14:47:06;;;;;;;7.63;4.13;;;;;;;;;;5031446;28;20047;-69
2023/03/16 14:49:37;;;;;;;7.80;4.18;;;;;;;;;;5031458;28;20029;-69
2023/03/16 14:52:33;;;;;;;8.88;4.45;;;;;;;;;;5045875;28;20115;-69
2023/03/16 14:54:59;;;;;;;7.20;4.22;;;;;;;;;;5039227;28;20082;-68
2023/03/16 14:57:25;;;;;;;7.97;4.00;;;;;;;;;;5041346;28;20516;-68
2023/03/16 14:59:52;;;;;;;5.65;4.10;;;;;;;;;;5032414;28;20033;-68
2023/03/16 15:02:23;;;;;;;7.50;4.05;;;;;;;;;;5045590;28;20080;-68